Time,TemperatureF,DewpointF,PressureIn,WindDirection,WindDirectionDegrees,WindSpeedMPH,WindSpeedGustMPH,Humidity,HourlyPrecipIn,Conditions,Clouds,dailyrainin,SolarRadiationWatts/m^2,SoftwareType,DateUTC
2013-09-24 05:42:00,43.0,43.0,-100.00,ESE,117,1.0,4.0,100,-99.99,,,0.00,0.000000,,2013-09-24 10:42:00,
2013-09-24 05:53:00,43.0,43.0,-100.00,ESE,117,1.0,4.0,100,-99.99,,,0.00,0.000000,,2013-09-24 10:53:00,
2013-09-24 06:03:00,43.0,43.0,-100.00,ESE,117,1.0,4.0,100,-99.99,,,0.00,0.000000,,2013-09-24 11:03:00,
2013-09-24 06:42:00,43.0,43.0,-100.00,ESE,108,0.0,4.0,100,0.00,,,0.00,0.000000,,2013-09-24 11:42:00,
2013-09-24 06:52:00,43.0,43.0,-100.00,ESE,108,0.0,4.0,100,0.00,,,0.00,0.000000,,2013-09-24 11:52:00,
2013-09-24 07:01:00,43.0,43.0,-100.00,ESE,108,0.0,4.0,100,0.00,,,0.00,0.000000,,2013-09-24 12:01:00,
2013-09-24 07:42:00,43.0,43.0,-100.00,East,85,0.0,4.0,100,0.00,,,0.00,1.000000,,2013-09-24 12:42:00,
2013-09-24 07:52:00,43.0,43.0,-100.00,East,85,0.0,4.0,100,0.00,,,0.00,1.000000,,2013-09-24 12:52:00,
2013-09-24 08:01:00,43.0,43.0,-100.00,East,85,0.0,4.0,100,0.00,,,0.00,1.000000,,2013-09-24 13:01:00,
2013-09-24 08:42:00,51.0,51.0,-100.00,SE,126,2.0,6.0,99,0.00,,,0.00,49.000000,,2013-09-24 13:42:00,
2013-09-24 08:52:00,51.0,51.0,-100.00,SE,126,2.0,6.0,99,0.00,,,0.00,49.000000,,2013-09-24 13:52:00,
2013-09-24 09:02:00,51.0,51.0,-100.00,SE,126,2.0,6.0,99,0.00,,,0.00,49.000000,,2013-09-24 14:02:00,
2013-09-24 09:42:00,57.0,51.0,-100.00,SE,124,3.0,7.0,80,0.00,,,0.00,218.000000,,2013-09-24 14:42:00,
2013-09-24 09:52:00,57.0,51.0,-100.00,SE,124,3.0,7.0,80,0.00,,,0.00,218.000000,,2013-09-24 14:52:00,
2013-09-24 10:01:00,57.0,51.0,-100.00,SE,124,3.0,7.0,80,0.00,,,0.00,218.000000,,2013-09-24 15:01:00,
2013-09-24 10:43:00,63.0,51.0,-100.00,SE,145,3.0,9.0,66,0.00,,,0.00,380.000000,,2013-09-24 15:43:00,
2013-09-24 10:54:00,63.0,51.0,-100.00,SE,145,3.0,9.0,66,0.00,,,0.00,380.000000,,2013-09-24 15:54:00,
2013-09-24 11:03:00,63.0,51.0,-100.00,SE,145,3.0,9.0,66,0.00,,,0.00,380.000000,,2013-09-24 16:03:00,
2013-09-24 11:43:00,67.0,52.0,-100.00,SE,143,4.0,9.0,58,0.00,,,0.00,510.000000,,2013-09-24 16:43:00,
2013-09-24 11:53:00,67.0,52.0,-100.00,SE,143,4.0,9.0,58,0.00,,,0.00,510.000000,,2013-09-24 16:53:00,
2013-09-24 12:02:00,67.0,52.0,-100.00,SE,143,4.0,9.0,58,0.00,,,0.00,510.000000,,2013-09-24 17:02:00,
2013-09-24 12:43:00,70.0,53.0,-100.00,ESE,112,4.0,8.0,55,0.00,,,0.00,615.000000,,2013-09-24 17:43:00,
2013-09-24 12:54:00,70.0,53.0,-100.00,ESE,112,4.0,8.0,55,0.00,,,0.00,615.000000,,2013-09-24 17:54:00,
2013-09-24 13:03:00,70.0,53.0,-100.00,ESE,112,4.0,8.0,55,0.00,,,0.00,615.000000,,2013-09-24 18:03:00,
2013-09-24 13:42:00,71.0,52.0,-100.00,ESE,119,6.0,10.0,52,0.00,,,0.00,680.000000,,2013-09-24 18:42:00,
2013-09-24 13:52:00,71.0,52.0,-100.00,ESE,119,6.0,10.0,52,0.00,,,0.00,680.000000,,2013-09-24 18:52:00,
2013-09-24 14:02:00,71.0,52.0,-100.00,ESE,119,6.0,10.0,52,0.00,,,0.00,680.000000,,2013-09-24 19:02:00,
2013-09-24 14:42:00,75.0,51.0,-100.00,SE,145,5.0,13.0,43,0.00,,,0.00,692.000000,,2013-09-24 19:42:00,
2013-09-24 14:52:00,75.0,51.0,-100.00,SE,145,5.0,13.0,43,0.00,,,0.00,692.000000,,2013-09-24 19:52:00,
2013-09-24 15:02:00,75.0,51.0,-100.00,SE,145,5.0,13.0,43,0.00,,,0.00,692.000000,,2013-09-24 20:02:00,
2013-09-24 15:42:00,76.0,50.0,-100.00,South,169,4.0,11.0,40,0.00,,,0.00,637.000000,,2013-09-24 20:42:00,
2013-09-24 15:52:00,76.0,50.0,-100.00,South,169,4.0,11.0,40,0.00,,,0.00,637.000000,,2013-09-24 20:52:00,
2013-09-24 16:02:00,76.0,50.0,-100.00,South,169,4.0,11.0,40,0.00,,,0.00,637.000000,,2013-09-24 21:02:00,
2013-09-24 16:44:00,76.0,51.0,-100.00,SE,135,4.0,10.0,42,0.00,,,0.00,492.000000,,2013-09-24 21:44:00,
2013-09-24 16:54:00,76.0,51.0,-100.00,SE,135,4.0,10.0,42,0.00,,,0.00,492.000000,,2013-09-24 21:54:00,
2013-09-24 17:04:00,76.0,51.0,-100.00,SE,135,4.0,10.0,42,0.00,,,0.00,492.000000,,2013-09-24 22:04:00,
2013-09-24 17:43:00,76.0,50.0,-100.00,SSE,160,3.0,9.0,40,0.00,,,0.00,409.000000,,2013-09-24 22:43:00,
2013-09-24 17:54:00,76.0,50.0,-100.00,SSE,160,3.0,9.0,40,0.00,,,0.00,409.000000,,2013-09-24 22:54:00,
2013-09-24 18:03:00,76.0,50.0,-100.00,SSE,160,3.0,9.0,40,0.00,,,0.00,409.000000,,2013-09-24 23:03:00,
2013-09-24 18:43:00,74.0,51.0,-100.00,SSE,148,2.0,9.0,44,0.00,,,0.00,226.000000,,2013-09-24 23:43:00,
2013-09-24 18:53:00,74.0,51.0,-100.00,SSE,148,2.0,9.0,44,0.00,,,0.00,226.000000,,2013-09-24 23:53:00,
2013-09-24 19:02:00,74.0,51.0,-100.00,SSE,148,2.0,9.0,44,0.00,,,0.00,226.000000,,2013-09-25 00:02:00,
2013-09-24 19:42:00,62.0,55.0,-100.00,ESE,112,0.0,4.0,78,0.00,,,0.00,49.000000,,2013-09-25 00:42:00,
2013-09-24 19:52:00,62.0,55.0,-100.00,ESE,112,0.0,4.0,78,0.00,,,0.00,49.000000,,2013-09-25 00:52:00,
2013-09-24 20:02:00,62.0,55.0,-100.00,ESE,112,0.0,4.0,78,0.00,,,0.00,49.000000,,2013-09-25 01:02:00,
2013-09-24 20:52:00,55.0,52.0,-100.00,ESE,115,0.0,2.0,90,0.00,,,-99.99,0.000000,,2013-09-25 01:52:00,
2013-09-24 21:02:00,55.0,52.0,-100.00,ESE,115,0.0,2.0,90,0.00,,,-99.99,0.000000,,2013-09-25 02:02:00,
2013-09-24 21:42:00,51.0,49.0,-100.00,East,90,0.0,2.0,94,0.00,,,0.00,0.000000,,2013-09-25 02:42:00,
2013-09-24 21:52:00,51.0,49.0,-100.00,East,90,0.0,2.0,94,0.00,,,0.00,0.000000,,2013-09-25 02:52:00,
2013-09-24 22:02:00,51.0,49.0,-100.00,East,90,0.0,2.0,94,0.00,,,0.00,0.000000,,2013-09-25 03:02:00,
2013-09-24 22:45:00,49.0,48.0,-100.00,East,99,0.0,3.0,97,0.00,,,0.00,0.000000,,2013-09-25 03:45:00,
2013-09-24 22:55:00,49.0,48.0,-100.00,East,99,0.0,3.0,97,0.00,,,0.00,0.000000,,2013-09-25 03:55:00,
2013-09-24 23:04:00,49.0,48.0,-100.00,East,99,0.0,3.0,97,0.00,,,0.00,0.000000,,2013-09-25 04:04:00,
2013-09-24 23:43:00,48.0,47.0,-100.00,SSE,148,0.0,2.0,98,0.00,,,0.00,0.000000,,2013-09-25 04:43:00,
2013-09-24 23:54:00,48.0,47.0,-100.00,SSE,148,0.0,2.0,98,0.00,,,0.00,0.000000,,2013-09-25 04:54:00,